Ernest N — A8PQ6 — position and weather

sailwx.info

Track history (hours):
 
Tides and Currents Weather Stations Pressure Air Temp Water Temp Dewpoint Dewpoint Depression Visibility Wind Speed Wind Dir Waves Ship Positions

Ernest N

Last reported at 2018-Jun-16 23:49 UTC. Time now 2018-Jun-18 05:33 UTC.
Position N 29°11' W 094°30'.

Length 205 m; draft 11.3 m.

Type: Tanker. MMSI: 636013815.

Date/timePositionNaut miles runAvg speedWind from/ knotsBaromVisibWave heightAir tempDewpointWater temp
2018-Jun-16 23:49N 29°11' W 094°30'411.9
2018-Jun-16 23:30N 29°14' W 094°33'611.2
2018-Jun-16 23:00N 29°18' W 094°37'511.0
2018-Jun-16 22:30N 29°21' W 094°43'510.3
2018-Jun-16 22:00N 29°22' W 094°48'510.7
2018-Jun-16 21:30N 29°27' W 094°51'510.5
2018-Jun-16 21:00N 29°32' W 094°54'510.2
2018-Jun-16 20:30N 29°36' W 094°57'5 9.6
2018-Jun-16 20:00N 29°40' W 094°59'4 7.6
2018-Jun-16 19:29N 29°44' W 095°01'5 5.0
2018-Jun-16 18:35N 29°44' W 095°07'1 5.1
2018-Jun-16 18:27N 29°44' W 095°07'0 0.0
2018-Jun-14 15:30N 29°44' W 095°08'2 3.5
2018-Jun-14 14:48N 29°46' W 095°05'4 8.0
2018-Jun-14 14:22N 29°44' W 095°02'3 7.7
2018-Jun-14 14:00N 29°42' W 094°60'510.2
2018-Jun-14 13:30N 29°37' W 094°57'611.8
2018-Jun-14 13:00N 29°32' W 094°54'713.5
2018-Jun-14 12:30N 29°26' W 094°50'713.7
2018-Jun-14 12:00N 29°21' W 094°46'713.4
2018-Jun-14 11:30N 29°19' W 094°38'510.5
2018-Jun-14 11:00N 29°16' W 094°33'2 3.9
2018-Jun-14 10:30N 29°15' W 094°34'4 7.2
2018-Jun-14 10:00N 29°14' W 094°38'2 4.6
2018-Jun-14 09:29N 29°15' W 094°41'0 0.1
2018-Jun-14 08:59N 29°15' W 094°41'0 0.0
2018-Jun-14 08:29N 29°15' W 094°41'0 0.0
2018-Jun-14 07:59N 29°15' W 094°41'0 0.1
2018-Jun-14 07:29N 29°15' W 094°41'0 0.0
2018-Jun-14 06:59N 29°15' W 094°41'0 0.0
2018-Jun-14 06:26N 29°15' W 094°41'0 0.0
2018-Jun-14 05:59N 29°15' W 094°41'0 0.1
2018-Jun-14 05:29N 29°15' W 094°41'0 0.0
2018-Jun-14 04:59N 29°15' W 094°41'0 0.0
2018-Jun-14 04:29N 29°15' W 094°41'0 0.0
2018-Jun-14 03:59N 29°15' W 094°41'0 0.0
2018-Jun-14 03:29N 29°15' W 094°41'0 0.0
2018-Jun-14 02:59N 29°15' W 094°41'0 0.0
2018-Jun-14 02:26N 29°15' W 094°41'0 0.0
2018-Jun-14 01:59N 29°15' W 094°41'0 0.0
2018-Jun-14 01:29N 29°15' W 094°41'0 0.0
2018-Jun-14 00:59N 29°15' W 094°41'0 0.0
2018-Jun-14 00:29N 29°15' W 094°41'0 0.0
2018-Jun-13 23:59N 29°15' W 094°41'0 0.0
2018-Jun-13 23:29N 29°15' W 094°41'0 0.0
2018-Jun-13 22:59N 29°15' W 094°41'0 0.0
2018-Jun-13 22:29N 29°15' W 094°41'0 0.0
2018-Jun-13 21:59N 29°15' W 094°41'0 0.0
2018-Jun-13 21:26N 29°15' W 094°41'0 0.0
2018-Jun-13 20:59N 29°15' W 094°41'0 0.0
2018-Jun-13 20:29N 29°15' W 094°41'0 0.0
2018-Jun-13 19:59N 29°15' W 094°41'0 0.0
2018-Jun-13 19:29N 29°15' W 094°41'0 0.0
2018-Jun-13 18:59N 29°15' W 094°41'0 0.0
2018-Jun-13 18:29N 29°15' W 094°41'0 0.0
2018-Jun-13 17:59N 29°15' W 094°41'0 0.0
2018-Jun-13 17:29N 29°15' W 094°41'0 0.0
2018-Jun-13 16:59N 29°15' W 094°41'0 0.0
2018-Jun-13 16:29N 29°15' W 094°41'0 0.0
2018-Jun-13 15:59N 29°15' W 094°41'0 0.0
2018-Jun-13 15:29N 29°15' W 094°41'0 0.0
2018-Jun-13 14:59N 29°15' W 094°41'0 0.0
2018-Jun-13 14:23N 29°15' W 094°41'0 0.0
2018-Jun-13 13:59N 29°15' W 094°41'0 0.0
2018-Jun-13 13:29N 29°15' W 094°41'0 0.0
2018-Jun-13 12:59N 29°15' W 094°41'0 0.0
2018-Jun-13 12:29N 29°15' W 094°41'0 0.0
2018-Jun-13 11:59N 29°15' W 094°41'0 0.0
2018-Jun-13 11:29N 29°15' W 094°41'0 0.1
2018-Jun-13 11:00N 29°15' W 094°41'2 4.2
2018-Jun-13 10:30N 29°13' W 094°39'713.5
2018-Jun-13 10:00N 29°07' W 094°37'714.1
2018-Jun-13 09:30N 29°02' W 094°31'813.9
2018-Jun-13 08:55N 28°55' W 094°26'  
Track history (hours):
 
Tides and Currents Weather Stations Pressure Air Temp Water Temp Dewpoint Dewpoint Depression Visibility Wind Speed Wind Dir Waves Ship Positions

Ernest N

Last reported at 2018-Jun-16 23:49 UTC. Time now 2018-Jun-18 05:33 UTC.
Position N 29°11' W 094°30'.

Length 205 m; draft 11.3 m.

Type: Tanker. MMSI: 636013815.

Date/timePositionNaut miles runAvg speedWind from/ knotsBaromVisibWave heightAir tempDewpointWater temp
2018-Jun-16 23:49N 29°11' W 094°30'411.9
2018-Jun-16 23:30N 29°14' W 094°33'611.2
2018-Jun-16 23:00N 29°18' W 094°37'511.0
2018-Jun-16 22:30N 29°21' W 094°43'510.3
2018-Jun-16 22:00N 29°22' W 094°48'510.7
2018-Jun-16 21:30N 29°27' W 094°51'510.5
2018-Jun-16 21:00N 29°32' W 094°54'510.2
2018-Jun-16 20:30N 29°36' W 094°57'5 9.6
2018-Jun-16 20:00N 29°40' W 094°59'4 7.6
2018-Jun-16 19:29N 29°44' W 095°01'5 5.0
2018-Jun-16 18:35N 29°44' W 095°07'1 5.1
2018-Jun-16 18:27N 29°44' W 095°07'0 0.0
2018-Jun-14 15:30N 29°44' W 095°08'2 3.5
2018-Jun-14 14:48N 29°46' W 095°05'4 8.0
2018-Jun-14 14:22N 29°44' W 095°02'3 7.7
2018-Jun-14 14:00N 29°42' W 094°60'510.2
2018-Jun-14 13:30N 29°37' W 094°57'611.8
2018-Jun-14 13:00N 29°32' W 094°54'713.5
2018-Jun-14 12:30N 29°26' W 094°50'713.7
2018-Jun-14 12:00N 29°21' W 094°46'713.4
2018-Jun-14 11:30N 29°19' W 094°38'510.5
2018-Jun-14 11:00N 29°16' W 094°33'2 3.9
2018-Jun-14 10:30N 29°15' W 094°34'4 7.2
2018-Jun-14 10:00N 29°14' W 094°38'2 4.6
2018-Jun-14 09:29N 29°15' W 094°41'0 0.1
2018-Jun-14 08:59N 29°15' W 094°41'0 0.0
2018-Jun-14 08:29N 29°15' W 094°41'0 0.0
2018-Jun-14 07:59N 29°15' W 094°41'0 0.1
2018-Jun-14 07:29N 29°15' W 094°41'0 0.0
2018-Jun-14 06:59N 29°15' W 094°41'0 0.0
2018-Jun-14 06:26N 29°15' W 094°41'0 0.0
2018-Jun-14 05:59N 29°15' W 094°41'0 0.1
2018-Jun-14 05:29N 29°15' W 094°41'0 0.0
2018-Jun-14 04:59N 29°15' W 094°41'0 0.0
2018-Jun-14 04:29N 29°15' W 094°41'0 0.0
2018-Jun-14 03:59N 29°15' W 094°41'0 0.0
2018-Jun-14 03:29N 29°15' W 094°41'0 0.0
2018-Jun-14 02:59N 29°15' W 094°41'0 0.0
2018-Jun-14 02:26N 29°15' W 094°41'0 0.0
2018-Jun-14 01:59N 29°15' W 094°41'0 0.0
2018-Jun-14 01:29N 29°15' W 094°41'0 0.0
2018-Jun-14 00:59N 29°15' W 094°41'0 0.0
2018-Jun-14 00:29N 29°15' W 094°41'0 0.0
2018-Jun-13 23:59N 29°15' W 094°41'0 0.0
2018-Jun-13 23:29N 29°15' W 094°41'0 0.0
2018-Jun-13 22:59N 29°15' W 094°41'0 0.0
2018-Jun-13 22:29N 29°15' W 094°41'0 0.0
2018-Jun-13 21:59N 29°15' W 094°41'0 0.0
2018-Jun-13 21:26N 29°15' W 094°41'0 0.0
2018-Jun-13 20:59N 29°15' W 094°41'0 0.0
2018-Jun-13 20:29N 29°15' W 094°41'0 0.0
2018-Jun-13 19:59N 29°15' W 094°41'0 0.0
2018-Jun-13 19:29N 29°15' W 094°41'0 0.0
2018-Jun-13 18:59N 29°15' W 094°41'0 0.0
2018-Jun-13 18:29N 29°15' W 094°41'0 0.0
2018-Jun-13 17:59N 29°15' W 094°41'0 0.0
2018-Jun-13 17:29N 29°15' W 094°41'0 0.0
2018-Jun-13 16:59N 29°15' W 094°41'0 0.0
2018-Jun-13 16:29N 29°15' W 094°41'0 0.0
2018-Jun-13 15:59N 29°15' W 094°41'0 0.0
2018-Jun-13 15:29N 29°15' W 094°41'0 0.0
2018-Jun-13 14:59N 29°15' W 094°41'0 0.0
2018-Jun-13 14:23N 29°15' W 094°41'0 0.0
2018-Jun-13 13:59N 29°15' W 094°41'0 0.0
2018-Jun-13 13:29N 29°15' W 094°41'0 0.0
2018-Jun-13 12:59N 29°15' W 094°41'0 0.0
2018-Jun-13 12:29N 29°15' W 094°41'0 0.0
2018-Jun-13 11:59N 29°15' W 094°41'0 0.0
2018-Jun-13 11:29N 29°15' W 094°41'0 0.1
2018-Jun-13 11:00N 29°15' W 094°41'2 4.2
2018-Jun-13 10:30N 29°13' W 094°39'713.5
2018-Jun-13 10:00N 29°07' W 094°37'714.1
2018-Jun-13 09:30N 29°02' W 094°31'813.9
2018-Jun-13 08:55N 28°55' W 094°26'  

Dump ship's entire track history